Time;durP1;ratioP1;P1;durP2;ratioP2;P2;SDS_P1;SDS_P2;PMS_P1;PMS_P2;Temp;Humidity;BMP_temperature;BMP_pressure;BME280_temperature;BME280_humidity;BME280_pressure;Samples;Min_cycle;Max_cycle;Signal;HPM_P1;HPM_P2
2021/11/21 00:01:59;;;;;;;63.15;40.25;;;153.90;2252.80;;;;;;5096452;28;20021;-85
2021/11/21 00:04:25;;;;;;;67.38;43.72;;;153.60;2252.80;;;;;;5095553;28;20028;-83
2021/11/21 00:06:51;;;;;;;134.05;72.43;;;153.60;2252.80;;;;;;5088940;28;20028;-85
2021/11/21 00:09:17;;;;;;;193.10;95.13;;;153.80;2252.80;;;;;;5081568;28;20093;-87
2021/11/21 00:11:43;;;;;;;189.63;98.18;;;153.90;2252.80;;;;;;5085297;28;20047;-85
2021/11/21 00:14:09;;;;;;;104.10;62.10;;;153.90;2252.80;;;;;;5094790;28;20162;-83
2021/11/21 00:16:35;;;;;;;95.40;57.10;;;153.60;2252.80;;;;;;5096439;28;20115;-84
2021/11/21 00:19:02;;;;;;;118.70;65.70;;;153.60;2252.80;;;;;;5094862;28;20031;-83
2021/11/21 00:21:28;;;;;;;165.13;96.07;;;153.70;2252.80;;;;;;5095548;28;20032;-84
2021/11/21 00:23:54;;;;;;;233.45;126.90;;;153.90;2252.80;;;;;;5094985;28;20035;-84
2021/11/21 00:26:20;;;;;;;180.65;104.65;;;154.00;2252.80;;;;;;5094899;28;20135;-86
2021/11/21 00:28:46;;;;;;;126.70;78.90;;;153.90;2252.80;;;;;;5095161;28;20488;-85
2021/11/21 00:31:11;;;;;;;116.93;73.18;;;154.10;2252.80;;;;;;5095825;28;20107;-83
2021/11/21 00:33:37;;;;;;;120.45;71.28;;;154.00;2252.80;;;;;;5095348;28;20502;-82
2021/11/21 00:36:04;;;;;;;117.60;71.18;;;154.10;2252.80;;;;;;5096677;28;20020;-85
2021/11/21 00:38:30;;;;;;;133.52;86.88;;;154.20;2252.80;;;;;;5095693;28;20104;-86
2021/11/21 00:40:56;;;;;;;143.35;90.32;;;154.10;2252.80;;;;;;5095601;28;20024;-83
2021/11/21 00:43:22;;;;;;;142.98;84.05;;;154.10;2252.80;;;;;;5095850;28;20031;-87
2021/11/21 00:45:48;;;;;;;136.35;87.45;;;154.20;2252.80;;;;;;5095480;28;20467;-84
2021/11/21 00:48:20;;;;;;;94.97;60.33;;;154.20;2252.80;;;;;;5095440;28;20185;-84
2021/11/21 00:50:48;;;;;;;95.70;54.72;;;154.20;2252.80;;;;;;5095684;28;20024;-87
2021/11/21 00:53:14;;;;;;;85.63;51.22;;;154.20;2252.80;;;;;;5095668;28;20031;-85
2021/11/21 00:56:22;;;;;;;67.25;41.53;;;154.30;2252.80;;;;;;5095021;28;20075;-87
2021/11/21 00:58:30;;;;;;;61.35;39.13;;;154.10;2252.80;;;;;;5093659;28;20040;-86
2021/11/21 01:00:56;;;;;;;60.85;41.17;;;128.70;2252.80;;;;;;5095731;28;20035;-88
2021/11/21 01:03:24;;;;;;;77.47;48.25;;;128.90;2252.80;;;;;;5095304;28;20021;-86
2021/11/21 01:05:51;;;;;;;116.75;65.90;;;128.90;2252.80;;;;;;5095300;28;20073;-86
2021/11/21 01:08:18;;;;;;;181.25;108.78;;;128.90;2252.80;;;;;;5095665;28;20491;-85
2021/11/21 01:10:47;;;;;;;91.22;56.90;;;128.80;2252.80;;;;;;5095381;28;20024;-87
2021/11/21 01:13:13;;;;;;;87.72;52.97;;;128.90;2252.80;;;;;;5095595;28;20452;-88
2021/11/21 01:15:40;;;;;;;84.63;50.53;;;128.70;2252.80;;;;;;5095404;28;20024;-87
2021/11/21 01:18:06;;;;;;;106.57;66.50;;;128.90;2252.80;;;;;;5095319;28;20070;-86
2021/11/21 01:20:34;;;;;;;125.65;78.53;;;128.60;2252.80;;;;;;5095201;28;20467;-87
2021/11/21 01:23:02;;;;;;;113.43;73.80;;;128.60;2252.80;;;;;;5095192;28;20031;-86
2021/11/21 01:25:28;;;;;;;99.28;62.40;;;128.60;2252.80;;;;;;5095105;28;20154;-87
2021/11/21 01:27:55;;;;;;;88.03;56.08;;;128.50;2252.80;;;;;;5096469;28;20078;-87
2021/11/21 01:30:26;;;;;;;72.88;46.88;;;128.70;2252.80;;;;;;5095451;28;20444;-87
2021/11/21 01:32:53;;;;;;;73.35;48.20;;;128.60;2252.80;;;;;;5096046;28;20352;-88
2021/11/21 01:35:19;;;;;;;82.65;51.72;;;128.50;2252.80;;;;;;5095589;28;20020;-86
2021/11/21 01:37:45;;;;;;;102.70;60.17;;;128.40;2252.80;;;;;;5095659;28;20451;-87
2021/11/21 01:40:13;;;;;;;87.25;52.67;;;128.20;2252.80;;;;;;5095506;28;20028;-88
2021/11/21 01:42:41;;;;;;;101.90;61.63;;;128.40;2252.80;;;;;;5095270;28;20032;-86
2021/11/21 01:45:07;;;;;;;75.30;48.95;;;128.30;2252.80;;;;;;5094612;28;20111;-88
2021/11/21 01:47:37;;;;;;;67.43;43.08;;;128.20;2252.80;;;;;;5095035;28;20072;-89
2021/11/21 01:50:08;;;;;;;59.78;35.20;;;128.00;2252.80;;;;;;5094885;28;20020;-88
2021/11/21 01:52:34;;;;;;;64.57;40.72;;;103.20;2227.20;;;;;;5094934;28;20043;-89
2021/11/21 01:55:00;;;;;;;69.97;42.92;;;103.00;2227.20;;;;;;5095626;28;20024;-89
2021/11/21 01:57:25;;;;;;;69.97;44.10;;;103.00;2227.20;;;;;;5094928;28;20071;-89
2021/11/21 01:59:52;;;;;;;90.55;53.75;;;103.20;2227.20;;;;;;5096039;28;20028;-87
2021/11/21 02:02:19;;;;;;;138.80;74.15;;;103.20;2227.20;;;;;;5095291;28;20115;-88
2021/11/21 02:04:45;;;;;;;128.10;70.28;;;103.10;2227.20;;;;;;5096364;28;20020;-87
2021/11/21 02:07:10;;;;;;;83.00;50.28;;;103.20;2227.20;;;;;;5095729;28;20035;-85
2021/11/21 02:09:36;;;;;;;54.95;34.55;;;103.10;2227.20;;;;;;5095739;28;20027;-87
2021/11/21 02:12:03;;;;;;;51.92;33.58;;;103.20;2227.20;;;;;;5094472;28;20081;-88
2021/11/21 02:14:30;;;;;;;54.95;33.50;;;103.10;2227.20;;;;;;5094413;28;20452;-89
2021/11/21 02:16:56;;;;;;;54.75;35.78;;;103.00;2227.20;;;;;;5095125;28;20071;-87
2021/11/21 02:19:22;;;;;;;55.78;33.63;;;103.10;2227.20;;;;;;5093362;28;20073;-89
2021/11/21 02:21:48;;;;;;;54.20;31.42;;;103.10;2227.20;;;;;;5094321;28;20024;-89
2021/11/21 02:24:14;;;;;;;59.20;35.47;;;103.10;2227.20;;;;;;5094146;28;20475;-89
2021/11/21 02:26:40;;;;;;;65.05;38.25;;;102.90;2227.20;;;;;;5095180;28;20029;-88
2021/11/21 02:29:06;;;;;;;72.93;40.55;;;103.10;2227.20;;;;;;5094209;28;20379;-87
2021/11/21 02:31:32;;;;;;;50.58;30.60;;;103.10;2227.20;;;;;;5094149;28;20161;-90
2021/11/21 02:33:58;;;;;;;48.83;29.55;;;103.10;2227.20;;;;;;5093945;28;20065;-88
2021/11/21 02:36:25;;;;;;;58.08;34.30;;;103.10;2227.20;;;;;;5093956;28;20054;-88
2021/11/21 02:38:51;;;;;;;68.30;38.42;;;103.00;2227.20;;;;;;5093948;28;20425;-88
2021/11/21 02:41:17;;;;;;;64.28;38.05;;;103.10;2227.20;;;;;;5093690;28;20024;-88
2021/11/21 02:43:45;;;;;;;57.35;34.15;;;103.10;2227.20;;;;;;5093875;28;20024;-87
2021/11/21 02:46:13;;;;;;;80.00;41.78;;;103.20;2227.20;;;;;;5093883;28;20032;-88
2021/11/21 02:48:39;;;;;;;55.92;35.33;;;103.10;2227.20;;;;;;5093840;28;20024;-89
2021/11/21 02:51:09;;;;;;;50.80;29.00;;;103.10;2227.20;;;;;;5093763;28;20478;-88
2021/11/21 02:53:36;;;;;;;44.95;26.15;;;102.80;2227.20;;;;;;5093556;28;20031;-89
2021/11/21 02:56:10;;;;;;;45.85;27.60;;;102.70;2227.20;;;;;;5093209;28;20040;-88
2021/11/21 02:58:37;;;;;;;57.22;31.58;;;102.80;2227.20;;;;;;5093661;28;20027;-87
2021/11/21 03:01:10;;;;;;;62.72;37.40;;;102.80;2227.20;;;;;;5093556;28;20024;-88
2021/11/21 03:03:35;;;;;;;;;;;103.30;2227.20;;;;;;5094222;28;20028;-90
2021/11/21 03:06:01;;;;;;;42.53;26.90;;;102.80;2227.20;;;;;;5093521;28;19911;-88
2021/11/21 03:08:27;;;;;;;46.83;25.85;;;102.70;2227.20;;;;;;5093477;28;20024;-89
2021/11/21 03:10:54;;;;;;;49.28;29.98;;;102.70;2227.20;;;;;;5094449;28;20027;-88
2021/11/21 03:13:20;;;;;;;56.22;31.23;;;102.70;2227.20;;;;;;5093602;28;20028;-91
2021/11/21 03:15:46;;;;;;;60.17;32.60;;;102.50;2227.20;;;;;;5093692;28;20029;-89
2021/11/21 03:18:12;;;;;;;59.38;37.25;;;102.60;2227.20;;;;;;5093500;28;20059;-88
2021/11/21 03:20:38;;;;;;;179.70;74.80;;;102.60;2227.20;;;;;;5093561;28;20028;-90
2021/11/21 03:23:06;;;;;;;65.15;36.55;;;102.50;2227.20;;;;;;5093285;28;20028;-89
2021/11/21 03:25:34;;;;;;;47.25;28.33;;;102.50;2227.20;;;;;;5093580;28;20024;-88
2021/11/21 03:28:00;;;;;;;57.63;31.70;;;102.60;2227.20;;;;;;5093357;28;20036;-89
2021/11/21 03:30:26;;;;;;;51.72;28.88;;;102.50;2227.20;;;;;;5096335;28;20119;-88
2021/11/21 03:32:53;;;;;;;53.10;31.40;;;102.40;2227.20;;;;;;5097947;28;20023;-85
2021/11/21 03:35:20;;;;;;;68.28;40.15;;;102.40;2227.20;;;;;;5097721;28;20035;-86
2021/11/21 03:37:45;;;;;;;92.28;47.05;;;102.40;2227.20;;;;;;5097825;28;20111;-88
2021/11/21 03:40:14;;;;;;;88.88;45.25;;;102.40;2227.20;;;;;;5097456;28;20109;-87
2021/11/21 03:42:40;;;;;;;115.88;55.63;;;102.40;2227.20;;;;;;5097261;28;20101;-89
2021/11/21 03:45:08;;;;;;;90.13;45.83;;;102.60;2227.20;;;;;;5097321;28;20024;-88
2021/11/21 03:47:33;;;;;;;47.03;27.45;;;102.60;2227.20;;;;;;5097246;28;20036;-89
2021/11/21 03:49:59;;;;;;;40.85;24.52;;;102.80;2227.20;;;;;;5096914;28;20020;-91
2021/11/21 03:52:25;;;;;;;43.88;27.42;;;102.90;2227.20;;;;;;5097063;28;20028;-88
2021/11/21 03:54:51;;;;;;;36.85;23.50;;;102.80;2227.20;;;;;;5097414;28;20422;-88
2021/11/21 03:57:18;;;;;;;34.78;23.50;;;102.50;2227.20;;;;;;5096485;28;20048;-89
2021/11/21 03:59:44;;;;;;;34.15;21.02;;;102.70;2227.20;;;;;;5096982;28;20443;-88
2021/11/21 04:02:10;;;;;;;46.15;30.38;;;102.90;2227.20;;;;;;5097215;28;20487;-88
2021/11/21 04:04:36;;;;;;;42.88;26.48;;;102.80;2227.20;;;;;;5096507;28;20056;-88
2021/11/21 04:07:02;;;;;;;37.28;26.33;;;103.00;2227.20;;;;;;5096910;28;20059;-89
2021/11/21 04:09:28;;;;;;;37.08;24.38;;;102.90;2227.20;;;;;;5096856;28;20148;-88
2021/11/21 04:11:54;;;;;;;43.33;24.95;;;103.00;2227.20;;;;;;5096620;28;20027;-88
2021/11/21 04:14:20;;;;;;;39.92;26.88;;;103.20;2227.20;;;;;;5096907;28;20028;-88
2021/11/21 04:16:46;;;;;;;40.70;26.80;;;103.20;2227.20;;;;;;5096796;28;20549;-89
2021/11/21 04:19:12;;;;;;;35.63;26.55;;;102.90;2227.20;;;;;;5096589;28;20026;-89
2021/11/21 04:21:39;;;;;;;41.55;26.00;;;103.00;2227.20;;;;;;5098060;28;20020;-87
2021/11/21 04:24:08;;;;;;;47.50;29.17;;;103.10;2227.20;;;;;;5096377;28;20028;-87
2021/11/21 04:26:34;;;;;;;49.50;30.42;;;103.10;2227.20;;;;;;5096541;28;20130;-87
2021/11/21 04:29:00;;;;;;;52.35;29.73;;;103.00;2227.20;;;;;;5097722;28;20483;-86
2021/11/21 04:31:26;;;;;;;39.90;26.38;;;102.90;2227.20;;;;;;5096312;28;20054;-88
2021/11/21 04:33:52;;;;;;;59.47;40.45;;;102.80;2227.20;;;;;;5096271;28;20111;-86
2021/11/21 04:36:17;;;;;;;49.30;32.40;;;102.80;2227.20;;;;;;5096341;28;20024;-88
2021/11/21 04:38:43;;;;;;;50.20;30.38;;;102.40;2227.20;;;;;;5096014;28;20383;-90
2021/11/21 04:41:11;;;;;;;45.05;29.63;;;102.60;2227.20;;;;;;5095229;28;20020;-88
2021/11/21 04:43:36;;;;;;;45.20;26.10;;;102.60;2227.20;;;;;;5096256;28;20456;-88
2021/11/21 04:46:02;;;;;;;45.38;27.75;;;102.60;2227.20;;;;;;5095826;28;20031;-87
2021/11/21 04:48:28;;;;;;;59.13;34.13;;;102.50;2227.20;;;;;;5096360;28;20028;-88
2021/11/21 04:50:54;;;;;;;52.50;30.67;;;77.70;2227.20;;;;;;5096207;28;20031;-89
2021/11/21 04:53:20;;;;;;;62.03;33.47;;;77.70;2227.20;;;;;;5095906;28;20388;-89
2021/11/21 04:55:45;;;;;;;53.85;28.67;;;77.60;2227.20;;;;;;5095758;28;20056;-87
2021/11/21 04:58:14;;;;;;;56.20;28.63;;;77.40;2227.20;;;;;;5095706;28;20028;-88
2021/11/21 05:00:41;;;;;;;77.53;38.13;;;77.40;2227.20;;;;;;5095680;28;20039;-89
2021/11/21 05:03:07;;;;;;;102.72;47.33;;;77.50;2227.20;;;;;;5095865;28;20016;-86
2021/11/21 05:05:34;;;;;;;98.43;45.85;;;77.40;2227.20;;;;;;5095605;28;20062;-87
2021/11/21 05:07:59;;;;;;;87.72;43.17;;;77.50;2227.20;;;;;;5095158;28;20024;-89
2021/11/21 05:10:26;;;;;;;78.88;39.55;;;77.50;2227.20;;;;;;5095543;28;20097;-87
2021/11/21 05:12:51;;;;;;;102.50;64.25;;;77.60;2227.20;;;;;;5095543;28;20034;-88
2021/11/21 05:15:21;;;;;;;81.90;46.80;;;77.40;2227.20;;;;;;5095396;28;20103;-88
2021/11/21 05:17:48;;;;;;;68.32;38.42;;;102.50;2227.20;;;;;;5095456;28;20425;-87
2021/11/21 05:20:15;;;;;;;66.85;36.15;;;77.50;2227.20;;;;;;5095326;28;20024;-89
2021/11/21 05:22:41;;;;;;;73.65;39.40;;;77.50;2227.20;;;;;;5095440;28;20028;-89
2021/11/21 05:25:08;;;;;;;70.05;36.40;;;77.40;2227.20;;;;;;5095453;28;20028;-88
2021/11/21 05:27:34;;;;;;;64.45;35.03;;;77.40;2227.20;;;;;;5095286;28;20028;-86
2021/11/21 05:30:00;;;;;;;71.95;37.38;;;102.60;2227.20;;;;;;5095362;28;20115;-87
2021/11/21 05:32:26;;;;;;;62.47;34.65;;;77.40;2227.20;;;;;;5095301;28;20459;-89
2021/11/21 05:34:53;;;;;;;71.47;35.08;;;77.40;2227.20;;;;;;5094895;28;20049;-87
2021/11/21 05:37:19;;;;;;;65.82;33.75;;;77.30;2227.20;;;;;;5094954;28;20058;-87
2021/11/21 05:39:44;;;;;;;68.38;32.83;;;77.20;2227.20;;;;;;5095127;28;20028;-89
2021/11/21 05:42:10;;;;;;;71.03;37.50;;;77.20;2227.20;;;;;;5095485;28;20541;-88
2021/11/21 05:44:36;;;;;;;86.63;43.33;;;77.20;2227.20;;;;;;5095608;28;20028;-87
2021/11/21 05:47:03;;;;;;;85.03;41.10;;;77.10;2227.20;;;;;;5094871;28;20089;-88
2021/11/21 05:49:29;;;;;;;84.03;40.47;;;77.10;2227.20;;;;;;5094638;28;20024;-88
2021/11/21 05:51:54;;;;;;;73.90;37.55;;;77.10;2227.20;;;;;;5094695;28;20111;-89
2021/11/21 05:54:20;;;;;;;74.80;43.53;;;77.10;2227.20;;;;;;5094677;28;20028;-88
2021/11/21 05:56:46;;;;;;;97.03;46.45;;;77.10;2227.20;;;;;;5094075;28;20075;-87
2021/11/21 05:59:12;;;;;;;78.47;39.60;;;77.20;2227.20;;;;;;5094710;28;20039;-89
2021/11/21 06:01:38;;;;;;;92.55;46.38;;;77.10;2227.20;;;;;;5094723;28;20168;-88
2021/11/21 06:04:05;;;;;;;86.72;45.53;;;77.00;2227.20;;;;;;5094579;28;20451;-87
2021/11/21 06:06:32;;;;;;;91.43;45.85;;;77.10;2227.20;;;;;;5094463;28;20028;-88
2021/11/21 06:08:57;;;;;;;102.53;48.72;;;77.10;2227.20;;;;;;5094492;28;20032;-88
2021/11/21 06:11:23;;;;;;;77.90;39.47;;;77.10;2227.20;;;;;;5094364;28;20024;-89
2021/11/21 06:13:49;;;;;;;74.43;40.60;;;77.10;2227.20;;;;;;5094249;28;20027;-88
2021/11/21 06:16:15;;;;;;;95.25;47.50;;;77.00;2227.20;;;;;;5094319;28;20024;-89
2021/11/21 06:18:41;;;;;;;129.88;64.20;;;77.00;2227.20;;;;;;5094212;28;20032;-85
2021/11/21 06:21:06;;;;;;;109.35;57.53;;;77.10;2227.20;;;;;;5094327;28;20085;-88
2021/11/21 06:23:34;;;;;;;99.10;55.30;;;77.10;2227.20;;;;;;5093899;28;20486;-87
2021/11/21 06:26:05;;;;;;;95.22;55.63;;;77.20;2227.20;;;;;;5094163;28;20274;-89
2021/11/21 06:28:32;;;;;;;101.68;53.67;;;77.20;2227.20;;;;;;5094418;28;20123;-88
2021/11/21 06:30:58;;;;;;;85.15;47.08;;;77.20;2227.20;;;;;;5094078;28;20081;-89
2021/11/21 06:33:24;;;;;;;80.38;51.10;;;52.10;2227.20;;;;;;5094112;28;20061;-89
2021/11/21 06:35:51;;;;;;;81.55;48.20;;;77.20;2227.20;;;;;;5094267;28;20074;-89
2021/11/21 06:38:17;;;;;;;87.97;54.17;;;52.10;2227.20;;;;;;5093569;28;20059;-89
2021/11/21 06:40:45;;;;;;;102.15;56.58;;;77.30;2227.20;;;;;;5093922;28;20028;-89
2021/11/21 06:43:11;;;;;;;92.82;50.97;;;77.20;2227.20;;;;;;5093904;28;20028;-87
2021/11/21 06:45:37;;;;;;;78.40;45.03;;;77.30;2227.20;;;;;;5093664;28;20028;-88
2021/11/21 06:48:09;;;;;;;91.95;49.60;;;77.20;2227.20;;;;;;5093851;28;20032;-88
2021/11/21 06:50:35;;;;;;;83.10;48.53;;;77.20;2227.20;;;;;;5093974;28;20020;-89
2021/11/21 06:53:02;;;;;;;86.45;52.25;;;77.20;2227.20;;;;;;5093619;28;20024;-87
2021/11/21 06:55:27;;;;;;;101.18;54.08;;;77.20;2227.20;;;;;;5093322;28;20505;-89
2021/11/21 06:57:55;;;;;;;85.35;50.83;;;77.10;2227.20;;;;;;5094767;28;20103;-88
2021/11/21 07:00:21;;;;;;;80.60;47.53;;;77.20;2227.20;;;;;;5093581;28;20039;-89
2021/11/21 07:02:47;;;;;;;83.38;47.63;;;77.20;2227.20;;;;;;5095000;28;20083;-88
2021/11/21 07:05:13;;;;;;;87.22;50.63;;;77.20;2227.20;;;;;;5093133;28;20055;-88
2021/11/21 07:07:40;;;;;;;88.57;48.42;;;77.30;2227.20;;;;;;5093626;28;20032;-88
2021/11/21 07:10:07;;;;;;;79.22;47.53;;;77.40;2227.20;;;;;;5093639;28;20031;-88
2021/11/21 07:12:33;;;;;;;72.30;42.28;;;77.50;2227.20;;;;;;5093383;28;20028;-87
2021/11/21 07:14:59;;;;;;;73.80;42.42;;;77.40;2227.20;;;;;;5093572;28;20058;-89
2021/11/21 07:17:25;;;;;;;69.55;42.85;;;77.50;2227.20;;;;;;5093709;28;20119;-89
2021/11/21 07:19:51;;;;;;;72.88;39.28;;;77.50;2227.20;;;;;;5094616;28;20074;-88
2021/11/21 07:22:17;;;;;;;60.38;37.42;;;77.50;2227.20;;;;;;5095656;28;20169;-88
2021/11/21 07:24:42;;;;;;;51.03;34.00;;;77.50;2227.20;;;;;;5095846;28;20576;-86
2021/11/21 07:27:08;;;;;;;57.08;33.35;;;77.50;2227.20;;;;;;5094884;28;20024;-87
2021/11/21 07:29:34;;;;;;;54.58;30.65;;;77.60;2227.20;;;;;;5093242;28;20035;-87
2021/11/21 07:32:03;;;;;;;71.22;41.13;;;77.40;2227.20;;;;;;5093137;28;20111;-86
2021/11/21 07:34:29;;;;;;;56.17;37.80;;;77.40;2227.20;;;;;;5092998;28;20124;-86
2021/11/21 07:36:56;;;;;;;56.28;34.53;;;77.50;2227.20;;;;;;5093061;28;20074;-87
2021/11/21 07:39:23;;;;;;;65.85;40.35;;;77.50;2227.20;;;;;;5093336;28;20036;-88
2021/11/21 07:41:49;;;;;;;112.80;62.80;;;77.50;2227.20;;;;;;5092911;28;20353;-88
2021/11/21 07:44:15;;;;;;;97.60;52.72;;;77.60;2227.20;;;;;;5093052;28;20052;-88
2021/11/21 07:46:42;;;;;;;102.10;55.22;;;77.50;2227.20;;;;;;5092960;28;20025;-87
2021/11/21 07:49:08;;;;;;;65.60;38.35;;;77.50;2227.20;;;;;;5092521;28;20067;-88
2021/11/21 07:51:34;;;;;;;89.55;47.72;;;77.60;2227.20;;;;;;5093941;28;20020;-88
2021/11/21 07:54:00;;;;;;;80.07;48.95;;;77.60;2227.20;;;;;;5093051;28;20024;-87
2021/11/21 07:56:26;;;;;;;88.82;50.20;;;77.70;2227.20;;;;;;5092985;28;20044;-87
2021/11/21 07:58:51;;;;;;;76.00;45.53;;;102.40;2227.20;;;;;;5093052;28;20031;-87
2021/11/21 08:01:18;;;;;;;84.82;47.63;;;102.40;2227.20;;;;;;5093877;28;20036;-87
2021/11/21 08:03:44;;;;;;;80.78;50.92;;;102.50;2227.20;;;;;;5092838;28;20057;-86
2021/11/21 08:06:10;;;;;;;107.40;62.05;;;102.50;2227.20;;;;;;5092975;28;20033;-87
2021/11/21 08:08:36;;;;;;;115.95;68.55;;;102.50;2227.20;;;;;;5093027;28;20028;-88
2021/11/21 08:11:03;;;;;;;101.63;59.45;;;102.60;2227.20;;;;;;5093015;28;20118;-88
2021/11/21 08:13:29;;;;;;;86.68;51.25;;;102.60;2227.20;;;;;;5093046;28;20031;-88
2021/11/21 08:15:56;;;;;;;105.07;58.60;;;102.70;2227.20;;;;;;5092867;28;20028;-85
2021/11/21 08:18:22;;;;;;;81.55;50.97;;;102.60;2227.20;;;;;;5097816;28;20493;-88
2021/11/21 08:20:49;;;;;;;89.18;53.13;;;102.70;2227.20;;;;;;5096397;28;20476;-85
2021/11/21 08:23:15;;;;;;;91.10;54.88;;;102.60;2227.20;;;;;;5096213;28;20020;-85
2021/11/21 08:25:41;;;;;;;70.70;45.05;;;102.70;2227.20;;;;;;5096347;28;20043;-88
2021/11/21 08:28:07;;;;;;;67.13;42.05;;;102.60;2227.20;;;;;;5096174;28;20472;-89
2021/11/21 08:30:37;;;;;;;91.15;52.70;;;102.60;2227.20;;;;;;5096061;28;20459;-86
2021/11/21 08:33:05;;;;;;;79.95;49.53;;;102.50;2227.20;;;;;;5096289;28;20020;-87
2021/11/21 08:35:31;;;;;;;67.57;43.35;;;102.60;2227.20;;;;;;5096360;28;20391;-86
2021/11/21 08:37:57;;;;;;;66.63;39.95;;;102.80;2227.20;;;;;;5095934;28;20039;-88
2021/11/21 08:40:23;;;;;;;83.05;47.13;;;102.80;2227.20;;;;;;5096078;28;20031;-87
2021/11/21 08:42:49;;;;;;;91.55;55.47;;;102.90;2227.20;;;;;;5095917;28;20025;-87
2021/11/21 08:45:14;;;;;;;81.40;52.13;;;102.90;2227.20;;;;;;5095267;28;20037;-86
2021/11/21 08:47:41;;;;;;;88.93;55.70;;;103.00;2227.20;;;;;;5096045;28;20032;-87
2021/11/21 08:50:08;;;;;;;84.78;51.88;;;103.10;2227.20;;;;;;5095558;28;20028;-86
2021/11/21 08:52:35;;;;;;;80.68;52.08;;;103.20;2227.20;;;;;;5097079;28;20024;-86
2021/11/21 08:55:02;;;;;;;80.50;50.70;;;103.10;2227.20;;;;;;5096567;28;20402;-85
2021/11/21 08:57:28;;;;;;;83.40;50.95;;;102.90;2227.20;;;;;;5097128;28;20054;-87
2021/11/21 08:59:54;;;;;;;83.18;49.05;;;103.30;2227.20;;;;;;5097009;28;20498;-86
2021/11/21 09:02:20;;;;;;;71.07;45.45;;;103.30;2227.20;;;;;;5095973;28;20411;-86
2021/11/21 09:04:46;;;;;;;86.15;45.92;;;128.00;2252.80;;;;;;5095451;28;20027;-87
2021/11/21 09:07:11;;;;;;;83.03;53.00;;;128.00;2252.80;;;;;;5096222;28;20028;-89
2021/11/21 09:09:37;;;;;;;147.48;76.15;;;128.10;2252.80;;;;;;5096188;28;20051;-88
2021/11/21 09:12:03;;;;;;;160.70;88.00;;;128.10;2252.80;;;;;;5095840;28;20371;-87
2021/11/21 09:14:29;;;;;;;146.82;82.95;;;128.30;2252.80;;;;;;5096389;28;20413;-87
2021/11/21 09:16:55;;;;;;;110.03;66.45;;;128.40;2252.80;;;;;;5096722;28;20111;-87
2021/11/21 09:19:21;;;;;;;98.50;58.10;;;128.40;2252.80;;;;;;5095858;28;20032;-86
2021/11/21 09:21:47;;;;;;;100.65;60.20;;;128.50;2252.80;;;;;;5094857;28;20150;-83
2021/11/21 09:24:14;;;;;;;94.15;60.00;;;128.60;2252.80;;;;;;5095408;28;20051;-80
2021/11/21 09:26:40;;;;;;;78.45;50.30;;;128.80;2252.80;;;;;;5093813;28;20131;-86
2021/11/21 09:29:07;;;;;;;73.55;47.08;;;128.80;2252.80;;;;;;5095358;28;20103;-84
2021/11/21 09:31:33;;;;;;;77.90;49.28;;;153.70;2252.80;;;;;;5094216;28;20115;-81
2021/11/21 09:33:59;;;;;;;79.97;52.35;;;153.80;2252.80;;;;;;5095126;28;20063;-80
2021/11/21 09:36:25;;;;;;;76.50;47.72;;;154.00;2252.80;;;;;;5094247;28;20115;-80
2021/11/21 09:38:51;;;;;;;65.25;40.95;;;154.20;2252.80;;;;;;5094109;28;20382;-82
2021/11/21 09:41:17;;;;;;;63.75;40.35;;;154.30;2252.80;;;;;;5093997;28;20032;-82
2021/11/21 09:43:43;;;;;;;68.70;46.00;;;154.40;2252.80;;;;;;5095658;28;20032;-83
2021/11/21 09:46:11;;;;;;;79.07;49.58;;;154.40;2252.80;;;;;;5094807;28;20032;-83
2021/11/21 09:48:37;;;;;;;76.05;51.22;;;179.30;2252.80;;;;;;5095361;28;20137;-82
2021/11/21 09:51:04;;;;;;;84.78;54.45;;;179.50;2252.80;;;;;;5094088;28;20028;-82
2021/11/21 09:53:30;;;;;;;83.07;54.75;;;179.60;2252.80;;;;;;5091208;28;20035;-80
2021/11/21 09:55:56;;;;;;;92.55;62.22;;;179.80;2252.80;;;;;;5085482;28;20044;-81
2021/11/21 09:58:23;;;;;;;88.72;60.75;;;179.90;2252.80;;;;;;5092249;28;20483;-80
2021/11/21 10:00:50;;;;;;;75.25;52.97;;;204.80;2252.80;;;;;;5091893;28;20032;-79
2021/11/21 10:03:18;;;;;;;78.20;51.85;;;204.80;2252.80;;;;;;5093009;28;20378;-78
2021/11/21 10:05:47;;;;;;;84.70;57.50;;;205.00;2252.80;;;;;;5092478;28;20032;-79
2021/11/21 10:08:21;;;;;;;89.70;59.63;;;205.20;2252.80;;;;;;5092061;28;20122;-78
2021/11/21 10:10:50;;;;;;;86.03;57.63;;;205.40;2252.80;;;;;;5092810;28;20498;-79
2021/11/21 10:13:36;;;;;;;82.50;56.33;;;205.60;2252.80;;;;;;5093598;28;20081;-79
2021/11/21 10:16:33;;;;;;;52.45;36.67;;;205.70;2252.80;;;;;;5093713;28;20024;-77
2021/11/21 10:19:11;;;;;;;57.53;41.40;;;205.70;2252.80;;;;;;5087656;28;20047;-80
2021/11/21 10:21:46;;;;;;;76.72;56.83;;;230.40;2252.80;;;;;;5091845;28;20143;-77
2021/11/21 10:24:15;;;;;;;54.08;40.33;;;230.70;2252.80;;;;;;5093483;28;20069;-79
2021/11/21 10:26:42;;;;;;;55.05;36.85;;;230.70;2252.80;;;;;;5092532;28;20031;-77
2021/11/21 10:29:38;;;;;;;60.70;40.28;;;230.70;2252.80;;;;;;5092122;28;20043;-80
2021/11/21 10:32:22;;;;;;;47.53;34.05;;;230.70;2252.80;;;;;;5092575;28;20034;-82
2021/11/21 10:34:56;;;;;;;46.50;33.05;;;230.80;2252.80;;;;;;5094093;28;20097;-82
2021/11/21 10:37:48;;;;;;;40.40;30.27;;;230.90;2252.80;;;;;;5093304;28;20066;-81
2021/11/21 10:40:18;;;;;;;50.60;33.30;;;231.10;2252.80;;;;;;5090280;28;20475;-82
2021/11/21 10:42:48;;;;;;;50.15;33.65;;;231.30;2252.80;;;;;;5093442;28;20030;-82
2021/11/21 10:45:19;;;;;;;47.05;32.67;;;256.00;2252.80;;;;;;5092063;28;20028;-80
2021/11/21 10:47:47;;;;;;;63.28;50.65;;;256.10;2252.80;;;;;;5092396;28;20096;-80
2021/11/21 10:50:38;;;;;;;61.83;42.88;;;256.30;2252.80;;;;;;5093270;28;20020;-81
2021/11/21 10:53:08;;;;;;;57.63;44.47;;;256.70;2252.80;;;;;;5087953;28;20028;-81
2021/11/21 10:55:39;;;;;;;59.50;42.28;;;281.60;2278.40;;;;;;5089639;28;20426;-81
2021/11/21 10:58:14;;;;;;;53.47;41.08;;;281.80;2278.40;;;;;;5090453;28;20043;-80
2021/11/21 11:00:43;;;;;;;59.85;42.08;;;281.90;2278.40;;;;;;5092664;28;20554;-78
2021/11/21 11:03:20;;;;;;;54.20;41.25;;;282.00;2278.40;;;;;;5092984;28;20116;-79
2021/11/21 11:05:46;;;;;;;58.55;42.38;;;282.10;2278.40;;;;;;5091685;28;20047;-80
2021/11/21 11:08:24;;;;;;;62.63;44.53;;;282.30;2278.40;;;;;;5092102;28;20475;-81
2021/11/21 11:10:50;;;;;;;58.40;42.30;;;307.20;2304.00;;;;;;5076454;28;20075;-80
2021/11/21 11:13:17;;;;;;;60.60;42.70;;;307.50;2304.00;;;;;;5072816;28;20468;-82
2021/11/21 11:15:45;;;;;;;62.10;45.67;;;307.80;2304.00;;;;;;5071864;28;20025;-81
2021/11/21 11:18:14;;;;;;;62.00;44.25;;;307.70;2304.00;;;;;;5072759;28;20034;-82
2021/11/21 11:20:57;;;;;;;63.00;44.35;;;307.90;2304.00;;;;;;5071577;28;20031;-82
2021/11/21 11:23:23;;;;;;;59.13;46.55;;;308.10;2304.00;;;;;;5072904;28;20472;-83
2021/11/21 11:25:51;;;;;;;53.15;42.58;;;332.80;2329.60;;;;;;5078602;28;20077;-81
2021/11/21 11:28:26;;;;;;;55.67;41.72;;;332.90;2329.60;;;;;;5092322;28;20028;-81
2021/11/21 11:30:57;;;;;;;54.70;39.65;;;333.30;2329.60;;;;;;5091871;28;20024;-82
2021/11/21 11:33:33;;;;;;;48.90;38.00;;;333.60;2329.60;;;;;;5091676;28;20048;-80
2021/11/21 11:35:59;;;;;;;52.22;42.25;;;358.50;2329.60;;;;;;5091101;28;20073;-78
2021/11/21 11:38:30;;;;;;;46.92;34.33;;;358.80;2329.60;;;;;;5092602;28;20036;-79
2021/11/21 11:41:03;;;;;;;52.63;35.78;;;359.00;2329.60;;;;;;5091564;28;20086;-81
2021/11/21 11:43:31;;;;;;;51.53;38.42;;;359.20;2329.60;;;;;;5092410;28;20027;-79
2021/11/21 11:46:13;;;;;;;48.20;35.15;;;359.30;2329.60;;;;;;5078518;28;20103;-78
2021/11/21 11:48:45;;;;;;;53.05;37.83;;;384.20;2329.60;;;;;;5071972;28;20037;-79
2021/11/21 11:51:22;;;;;;;45.80;33.70;;;384.40;2329.60;;;;;;5077082;28;20036;-77
2021/11/21 11:53:50;;;;;;;49.67;35.78;;;384.40;2329.60;;;;;;5077111;28;20028;-77
2021/11/21 11:56:39;;;;;;;55.78;43.70;;;384.50;2329.60;;;;;;5076677;28;20384;-78
2021/11/21 11:59:08;;;;;;;73.65;54.58;;;384.70;2329.60;;;;;;5074281;28;20036;-79
2021/11/21 12:01:39;;;;;;;62.75;44.88;;;384.70;2329.60;;;;;;5074851;28;20184;-80
2021/11/21 12:04:06;;;;;;;120.93;80.85;;;384.70;2329.60;;;;;;5076266;28;20032;-78